sensor_id;sensor_type;location;lat;lon;timestamp;temperature;humidity
38798;SHT11;24546;52.240;16.826;2022-07-10T00:02:13;17.50;99.90
38798;SHT11;24546;52.240;16.826;2022-07-10T00:07:13;17.40;99.90
38798;SHT11;24546;52.240;16.826;2022-07-10T00:12:14;17.10;99.90
38798;SHT11;24546;52.240;16.826;2022-07-10T00:17:15;17.10;99.90
38798;SHT11;24546;52.240;16.826;2022-07-10T00:22:16;16.90;99.90
38798;SHT11;24546;52.240;16.826;2022-07-10T00:27:18;16.80;99.90
38798;SHT11;24546;52.240;16.826;2022-07-10T00:32:19;16.50;99.90
38798;SHT11;24546;52.240;16.826;2022-07-10T00:37:20;16.30;99.90
38798;SHT11;24546;52.240;16.826;2022-07-10T00:42:24;16.30;99.90
38798;SHT11;24546;52.240;16.826;2022-07-10T00:47:24;16.30;99.90
38798;SHT11;24546;52.240;16.826;2022-07-10T00:52:26;16.30;99.90
38798;SHT11;24546;52.240;16.826;2022-07-10T00:57:27;16.10;99.90
38798;SHT11;24546;52.240;16.826;2022-07-10T01:02:28;16.00;99.90
38798;SHT11;24546;52.240;16.826;2022-07-10T01:07:29;16.40;99.90
38798;SHT11;24546;52.240;16.826;2022-07-10T01:12:31;16.00;99.90
38798;SHT11;24546;52.240;16.826;2022-07-10T01:17:32;16.00;99.90
38798;SHT11;24546;52.240;16.826;2022-07-10T01:22:34;15.80;99.90
38798;SHT11;24546;52.240;16.826;2022-07-10T01:27:36;15.60;99.90
38798;SHT11;24546;52.240;16.826;2022-07-10T01:32:38;15.50;99.90
38798;SHT11;24546;52.240;16.826;2022-07-10T01:37:40;15.30;99.90
38798;SHT11;24546;52.240;16.826;2022-07-10T01:42:41;15.50;99.90
38798;SHT11;24546;52.240;16.826;2022-07-10T01:47:42;15.40;99.90
38798;SHT11;24546;52.240;16.826;2022-07-10T01:52:44;15.30;99.90
38798;SHT11;24546;52.240;16.826;2022-07-10T01:57:44;15.30;99.90
38798;SHT11;24546;52.240;16.826;2022-07-10T02:02:45;15.40;99.90
38798;SHT11;24546;52.240;16.826;2022-07-10T02:08:06;15.10;99.90
38798;SHT11;24546;52.240;16.826;2022-07-10T02:13:07;15.00;99.90
38798;SHT11;24546;52.240;16.826;2022-07-10T02:18:08;14.80;99.90
38798;SHT11;24546;52.240;16.826;2022-07-10T02:23:09;14.60;99.90
38798;SHT11;24546;52.240;16.826;2022-07-10T02:28:10;14.60;99.90
38798;SHT11;24546;52.240;16.826;2022-07-10T02:33:11;14.40;99.90
38798;SHT11;24546;52.240;16.826;2022-07-10T02:38:12;14.40;99.90
38798;SHT11;24546;52.240;16.826;2022-07-10T02:43:15;14.40;99.90
38798;SHT11;24546;52.240;16.826;2022-07-10T02:48:16;14.50;99.90
38798;SHT11;24546;52.240;16.826;2022-07-10T02:53:18;14.40;99.90
38798;SHT11;24546;52.240;16.826;2022-07-10T02:58:19;14.50;99.90
38798;SHT11;24546;52.240;16.826;2022-07-10T03:03:20;14.50;99.90
38798;SHT11;24546;52.240;16.826;2022-07-10T03:08:21;14.40;99.90
38798;SHT11;24546;52.240;16.826;2022-07-10T03:13:22;14.40;99.90
38798;SHT11;24546;52.240;16.826;2022-07-10T03:18:23;14.50;99.90
38798;SHT11;24546;52.240;16.826;2022-07-10T03:23:24;14.70;99.90
38798;SHT11;24546;52.240;16.826;2022-07-10T03:28:26;14.70;99.90
38798;SHT11;24546;52.240;16.826;2022-07-10T03:33:27;14.50;99.90
38798;SHT11;24546;52.240;16.826;2022-07-10T03:38:29;14.60;99.90
38798;SHT11;24546;52.240;16.826;2022-07-10T03:43:30;14.60;99.90
38798;SHT11;24546;52.240;16.826;2022-07-10T03:48:31;14.60;99.90
38798;SHT11;24546;52.240;16.826;2022-07-10T03:53:32;14.70;99.90
38798;SHT11;24546;52.240;16.826;2022-07-10T03:58:33;14.80;99.90
38798;SHT11;24546;52.240;16.826;2022-07-10T04:03:34;14.90;99.90
38798;SHT11;24546;52.240;16.826;2022-07-10T04:08:35;15.00;99.90
38798;SHT11;24546;52.240;16.826;2022-07-10T04:13:36;15.20;99.90
38798;SHT11;24546;52.240;16.826;2022-07-10T04:18:37;15.00;99.90
38798;SHT11;24546;52.240;16.826;2022-07-10T04:23:37;15.00;99.90
38798;SHT11;24546;52.240;16.826;2022-07-10T04:28:38;14.80;99.90
38798;SHT11;24546;52.240;16.826;2022-07-10T04:33:39;15.00;99.90
38798;SHT11;24546;52.240;16.826;2022-07-10T04:38:40;15.30;99.90
38798;SHT11;24546;52.240;16.826;2022-07-10T04:43:41;15.50;99.90
38798;SHT11;24546;52.240;16.826;2022-07-10T04:48:42;15.60;99.90
38798;SHT11;24546;52.240;16.826;2022-07-10T04:53:43;15.80;99.90
38798;SHT11;24546;52.240;16.826;2022-07-10T04:58:44;15.80;99.90
38798;SHT11;24546;52.240;16.826;2022-07-10T05:03:45;15.90;99.90
38798;SHT11;24546;52.240;16.826;2022-07-10T05:08:46;15.80;99.90
38798;SHT11;24546;52.240;16.826;2022-07-10T05:13:47;15.90;99.90
38798;SHT11;24546;52.240;16.826;2022-07-10T05:18:48;15.90;99.90
38798;SHT11;24546;52.240;16.826;2022-07-10T05:23:49;15.80;99.90
38798;SHT11;24546;52.240;16.826;2022-07-10T05:28:50;15.90;99.90
38798;SHT11;24546;52.240;16.826;2022-07-10T05:33:51;16.00;99.90
38798;SHT11;24546;52.240;16.826;2022-07-10T05:38:52;16.50;99.90
38798;SHT11;24546;52.240;16.826;2022-07-10T05:43:53;17.20;99.90
38798;SHT11;24546;52.240;16.826;2022-07-10T05:48:54;17.50;99.90
38798;SHT11;24546;52.240;16.826;2022-07-10T05:53:55;17.50;99.90
38798;SHT11;24546;52.240;16.826;2022-07-10T05:58:56;17.20;99.90
38798;SHT11;24546;52.240;16.826;2022-07-10T06:03:57;17.50;99.90
38798;SHT11;24546;52.240;16.826;2022-07-10T06:08:58;17.30;99.90
38798;SHT11;24546;52.240;16.826;2022-07-10T06:13:59;17.20;99.90
38798;SHT11;24546;52.240;16.826;2022-07-10T06:19:00;17.50;99.90
38798;SHT11;24546;52.240;16.826;2022-07-10T06:24:01;17.10;99.90
38798;SHT11;24546;52.240;16.826;2022-07-10T06:29:02;17.20;99.90
38798;SHT11;24546;52.240;16.826;2022-07-10T06:34:03;17.00;99.90
38798;SHT11;24546;52.240;16.826;2022-07-10T06:39:04;17.20;99.90
38798;SHT11;24546;52.240;16.826;2022-07-10T06:44:05;17.40;99.90
38798;SHT11;24546;52.240;16.826;2022-07-10T06:49:06;17.20;99.90
38798;SHT11;24546;52.240;16.826;2022-07-10T06:54:07;17.60;99.90
38798;SHT11;24546;52.240;16.826;2022-07-10T06:59:08;17.60;99.90
38798;SHT11;24546;52.240;16.826;2022-07-10T07:04:08;17.90;99.90
38798;SHT11;24546;52.240;16.826;2022-07-10T07:09:09;17.60;99.90
38798;SHT11;24546;52.240;16.826;2022-07-10T07:14:10;17.90;99.90
38798;SHT11;24546;52.240;16.826;2022-07-10T07:19:12;18.20;99.70
38798;SHT11;24546;52.240;16.826;2022-07-10T07:24:18;17.90;99.70
38798;SHT11;24546;52.240;16.826;2022-07-10T07:29:19;18.30;99.20
38798;SHT11;24546;52.240;16.826;2022-07-10T07:34:20;18.60;98.90
38798;SHT11;24546;52.240;16.826;2022-07-10T07:39:21;18.60;99.30
38798;SHT11;24546;52.240;16.826;2022-07-10T07:44:21;18.40;98.60
38798;SHT11;24546;52.240;16.826;2022-07-10T07:49:22;18.70;98.50
38798;SHT11;24546;52.240;16.826;2022-07-10T07:54:23;18.70;97.00
38798;SHT11;24546;52.240;16.826;2022-07-10T07:59:24;18.40;97.50
38798;SHT11;24546;52.240;16.826;2022-07-10T08:04:25;18.90;98.60
38798;SHT11;24546;52.240;16.826;2022-07-10T08:09:26;19.40;97.10
38798;SHT11;24546;52.240;16.826;2022-07-10T08:14:27;19.30;97.20
38798;SHT11;24546;52.240;16.826;2022-07-10T08:19:28;19.20;95.80
38798;SHT11;24546;52.240;16.826;2022-07-10T08:24:29;19.10;96.30
38798;SHT11;24546;52.240;16.826;2022-07-10T08:29:29;18.80;95.80
38798;SHT11;24546;52.240;16.826;2022-07-10T08:34:30;19.00;96.10
38798;SHT11;24546;52.240;16.826;2022-07-10T08:39:33;19.20;96.00
38798;SHT11;24546;52.240;16.826;2022-07-10T08:44:34;18.90;96.20
38798;SHT11;24546;52.240;16.826;2022-07-10T08:49:36;19.10;96.30
38798;SHT11;24546;52.240;16.826;2022-07-10T08:54:37;19.50;95.70
38798;SHT11;24546;52.240;16.826;2022-07-10T08:59:39;19.20;95.50
38798;SHT11;24546;52.240;16.826;2022-07-10T09:04:40;19.10;95.70
38798;SHT11;24546;52.240;16.826;2022-07-10T09:09:55;19.40;95.80
38798;SHT11;24546;52.240;16.826;2022-07-10T09:15:15;19.90;93.80
38798;SHT11;24546;52.240;16.826;2022-07-10T09:20:37;20.30;93.40
38798;SHT11;24546;52.240;16.826;2022-07-10T09:25:38;20.60;93.50
38798;SHT11;24546;52.240;16.826;2022-07-10T09:30:39;21.30;92.90
38798;SHT11;24546;52.240;16.826;2022-07-10T09:36:10;21.30;92.60
38798;SHT11;24546;52.240;16.826;2022-07-10T09:41:22;20.90;92.20
38798;SHT11;24546;52.240;16.826;2022-07-10T09:46:31;20.40;92.90
38798;SHT11;24546;52.240;16.826;2022-07-10T09:51:39;19.90;93.40
38798;SHT11;24546;52.240;16.826;2022-07-10T09:56:48;20.10;93.80
38798;SHT11;24546;52.240;16.826;2022-07-10T10:01:52;20.10;94.20
38798;SHT11;24546;52.240;16.826;2022-07-10T10:06:56;20.10;93.80
38798;SHT11;24546;52.240;16.826;2022-07-10T10:12:17;20.40;95.00
38798;SHT11;24546;52.240;16.826;2022-07-10T10:17:19;20.80;92.00
38798;SHT11;24546;52.240;16.826;2022-07-10T10:22:23;21.20;92.90
38798;SHT11;24546;52.240;16.826;2022-07-10T10:27:24;21.30;92.60
38798;SHT11;24546;52.240;16.826;2022-07-10T10:32:27;21.30;92.40
38798;SHT11;24546;52.240;16.826;2022-07-10T10:37:39;21.50;92.00
38798;SHT11;24546;52.240;16.826;2022-07-10T10:42:43;21.40;96.00
38798;SHT11;24546;52.240;16.826;2022-07-10T10:48:06;21.00;97.20
38798;SHT11;24546;52.240;16.826;2022-07-10T10:53:28;20.50;98.30
38798;SHT11;24546;52.240;16.826;2022-07-10T10:58:42;20.20;99.30
38798;SHT11;24546;52.240;16.826;2022-07-10T11:14:22;20.10;99.90
38798;SHT11;24546;52.240;16.826;2022-07-10T11:19:29;20.20;99.90
38798;SHT11;24546;52.240;16.826;2022-07-10T11:29:59;21.60;99.40
38798;SHT11;24546;52.240;16.826;2022-07-10T11:35:00;22.40;99.90
38798;SHT11;24546;52.240;16.826;2022-07-10T11:40:09;22.80;99.50
38798;SHT11;24546;52.240;16.826;2022-07-10T11:45:26;22.60;97.20
38798;SHT11;24546;52.240;16.826;2022-07-10T11:50:27;22.90;97.60
38798;SHT11;24546;52.240;16.826;2022-07-10T11:55:34;23.30;95.70
38798;SHT11;24546;52.240;16.826;2022-07-10T12:00:41;23.20;96.10
38798;SHT11;24546;52.240;16.826;2022-07-10T12:05:42;22.80;93.90
38798;SHT11;24546;52.240;16.826;2022-07-10T12:10:43;23.40;94.20
38798;SHT11;24546;52.240;16.826;2022-07-10T12:15:45;23.30;93.60
38798;SHT11;24546;52.240;16.826;2022-07-10T12:20:47;23.50;94.00
38798;SHT11;24546;52.240;16.826;2022-07-10T12:25:49;23.50;91.60
38798;SHT11;24546;52.240;16.826;2022-07-10T12:30:50;23.60;92.60
38798;SHT11;24546;52.240;16.826;2022-07-10T12:35:55;23.30;91.00
38798;SHT11;24546;52.240;16.826;2022-07-10T12:41:13;24.00;92.50
38798;SHT11;24546;52.240;16.826;2022-07-10T12:46:24;24.00;90.70
38798;SHT11;24546;52.240;16.826;2022-07-10T12:51:27;24.10;89.10
38798;SHT11;24546;52.240;16.826;2022-07-10T12:56:36;23.70;89.80
38798;SHT11;24546;52.240;16.826;2022-07-10T13:01:43;23.20;88.20
38798;SHT11;24546;52.240;16.826;2022-07-10T13:06:44;22.50;90.40
38798;SHT11;24546;52.240;16.826;2022-07-10T13:11:46;22.20;91.80
38798;SHT11;24546;52.240;16.826;2022-07-10T13:16:47;22.40;91.10
38798;SHT11;24546;52.240;16.826;2022-07-10T13:21:48;22.70;90.30
38798;SHT11;24546;52.240;16.826;2022-07-10T13:26:49;22.60;88.90
38798;SHT11;24546;52.240;16.826;2022-07-10T13:31:50;22.30;91.60
38798;SHT11;24546;52.240;16.826;2022-07-10T13:36:51;21.90;90.80
38798;SHT11;24546;52.240;16.826;2022-07-10T13:41:54;20.90;92.30
38798;SHT11;24546;52.240;16.826;2022-07-10T13:46:56;20.50;92.90
38798;SHT11;24546;52.240;16.826;2022-07-10T13:51:56;20.10;94.40
38798;SHT11;24546;52.240;16.826;2022-07-10T13:56:58;19.90;95.10
38798;SHT11;24546;52.240;16.826;2022-07-10T14:01:59;20.40;94.60
38798;SHT11;24546;52.240;16.826;2022-07-10T14:07:00;20.80;94.70
38798;SHT11;24546;52.240;16.826;2022-07-10T14:12:01;21.10;95.50
38798;SHT11;24546;52.240;16.826;2022-07-10T14:17:03;21.40;95.70
38798;SHT11;24546;52.240;16.826;2022-07-10T14:22:04;21.40;95.10
38798;SHT11;24546;52.240;16.826;2022-07-10T14:27:05;21.70;94.70
38798;SHT11;24546;52.240;16.826;2022-07-10T14:32:07;22.30;92.90
38798;SHT11;24546;52.240;16.826;2022-07-10T14:37:13;22.30;92.60
38798;SHT11;24546;52.240;16.826;2022-07-10T14:42:14;21.90;91.40
38798;SHT11;24546;52.240;16.826;2022-07-10T14:47:15;21.80;91.10
38798;SHT11;24546;52.240;16.826;2022-07-10T14:52:17;22.10;91.80
38798;SHT11;24546;52.240;16.826;2022-07-10T14:57:21;21.80;91.90
38798;SHT11;24546;52.240;16.826;2022-07-10T15:02:22;22.00;91.90
38798;SHT11;24546;52.240;16.826;2022-07-10T15:07:23;22.10;90.70
38798;SHT11;24546;52.240;16.826;2022-07-10T15:12:24;21.90;91.20
38798;SHT11;24546;52.240;16.826;2022-07-10T15:17:25;21.60;91.80
38798;SHT11;24546;52.240;16.826;2022-07-10T15:22:26;21.80;91.30
38798;SHT11;24546;52.240;16.826;2022-07-10T15:27:27;22.10;91.20
38798;SHT11;24546;52.240;16.826;2022-07-10T15:32:27;22.20;91.70
38798;SHT11;24546;52.240;16.826;2022-07-10T15:37:28;21.90;91.00
38798;SHT11;24546;52.240;16.826;2022-07-10T15:42:30;21.40;91.80
38798;SHT11;24546;52.240;16.826;2022-07-10T15:47:31;20.90;91.50
38798;SHT11;24546;52.240;16.826;2022-07-10T15:52:32;20.80;91.80
38798;SHT11;24546;52.240;16.826;2022-07-10T15:57:33;21.00;92.80
38798;SHT11;24546;52.240;16.826;2022-07-10T16:02:34;21.00;91.70
38798;SHT11;24546;52.240;16.826;2022-07-10T16:07:35;20.50;92.80
38798;SHT11;24546;52.240;16.826;2022-07-10T16:12:36;20.40;93.10
38798;SHT11;24546;52.240;16.826;2022-07-10T16:17:37;20.10;94.90
38798;SHT11;24546;52.240;16.826;2022-07-10T16:22:38;20.40;96.30
38798;SHT11;24546;52.240;16.826;2022-07-10T16:27:39;20.40;98.40
38798;SHT11;24546;52.240;16.826;2022-07-10T16:32:40;20.50;99.00
38798;SHT11;24546;52.240;16.826;2022-07-10T16:37:41;20.40;99.90
38798;SHT11;24546;52.240;16.826;2022-07-10T16:42:42;20.20;99.90
38798;SHT11;24546;52.240;16.826;2022-07-10T16:47:43;20.00;99.90
38798;SHT11;24546;52.240;16.826;2022-07-10T16:52:44;19.80;99.90
38798;SHT11;24546;52.240;16.826;2022-07-10T16:57:45;19.50;99.90
38798;SHT11;24546;52.240;16.826;2022-07-10T17:02:46;19.00;99.90
38798;SHT11;24546;52.240;16.826;2022-07-10T17:07:47;18.70;99.90
38798;SHT11;24546;52.240;16.826;2022-07-10T17:12:48;18.90;99.90
38798;SHT11;24546;52.240;16.826;2022-07-10T17:17:49;19.10;99.90
38798;SHT11;24546;52.240;16.826;2022-07-10T17:22:50;19.00;99.90
38798;SHT11;24546;52.240;16.826;2022-07-10T17:27:51;19.00;99.90
38798;SHT11;24546;52.240;16.826;2022-07-10T17:32:52;18.90;99.90
38798;SHT11;24546;52.240;16.826;2022-07-10T17:37:53;18.60;99.90
38798;SHT11;24546;52.240;16.826;2022-07-10T17:42:54;18.50;99.90
38798;SHT11;24546;52.240;16.826;2022-07-10T17:47:55;18.50;99.90
38798;SHT11;24546;52.240;16.826;2022-07-10T17:52:56;18.60;99.90
38798;SHT11;24546;52.240;16.826;2022-07-10T17:57:57;18.70;99.90
38798;SHT11;24546;52.240;16.826;2022-07-10T18:02:58;18.90;99.90
38798;SHT11;24546;52.240;16.826;2022-07-10T18:07:59;19.00;99.90
38798;SHT11;24546;52.240;16.826;2022-07-10T18:13:00;19.00;99.90
38798;SHT11;24546;52.240;16.826;2022-07-10T18:18:02;19.00;99.90
38798;SHT11;24546;52.240;16.826;2022-07-10T18:23:04;18.80;99.90
38798;SHT11;24546;52.240;16.826;2022-07-10T18:28:05;18.80;99.90
38798;SHT11;24546;52.240;16.826;2022-07-10T18:33:07;18.70;99.90
38798;SHT11;24546;52.240;16.826;2022-07-10T18:38:27;18.50;99.90
38798;SHT11;24546;52.240;16.826;2022-07-10T18:43:28;18.40;99.90
38798;SHT11;24546;52.240;16.826;2022-07-10T18:48:30;18.40;99.90
38798;SHT11;24546;52.240;16.826;2022-07-10T18:53:31;18.40;99.90
38798;SHT11;24546;52.240;16.826;2022-07-10T18:58:32;18.40;99.90
38798;SHT11;24546;52.240;16.826;2022-07-10T19:03:32;18.40;99.90
38798;SHT11;24546;52.240;16.826;2022-07-10T19:08:34;18.30;99.90
38798;SHT11;24546;52.240;16.826;2022-07-10T19:13:38;18.20;99.90
38798;SHT11;24546;52.240;16.826;2022-07-10T19:18:39;18.00;99.90
38798;SHT11;24546;52.240;16.826;2022-07-10T19:23:41;18.00;99.90
38798;SHT11;24546;52.240;16.826;2022-07-10T19:28:43;17.90;99.90
38798;SHT11;24546;52.240;16.826;2022-07-10T19:33:44;17.90;99.90
38798;SHT11;24546;52.240;16.826;2022-07-10T19:38:48;17.80;99.90
38798;SHT11;24546;52.240;16.826;2022-07-10T19:43:48;17.80;99.90
38798;SHT11;24546;52.240;16.826;2022-07-10T19:48:50;17.80;99.90
38798;SHT11;24546;52.240;16.826;2022-07-10T19:53:51;17.90;99.90
38798;SHT11;24546;52.240;16.826;2022-07-10T19:58:52;17.80;99.90
38798;SHT11;24546;52.240;16.826;2022-07-10T20:03:53;17.70;99.90
38798;SHT11;24546;52.240;16.826;2022-07-10T20:08:54;17.70;99.90
38798;SHT11;24546;52.240;16.826;2022-07-10T20:13:56;17.70;99.90
38798;SHT11;24546;52.240;16.826;2022-07-10T20:18:57;17.60;99.90
38798;SHT11;24546;52.240;16.826;2022-07-10T20:24:00;17.70;99.90
38798;SHT11;24546;52.240;16.826;2022-07-10T20:29:01;17.60;99.90
38798;SHT11;24546;52.240;16.826;2022-07-10T20:34:02;17.60;99.90
38798;SHT11;24546;52.240;16.826;2022-07-10T20:39:02;17.50;99.90
38798;SHT11;24546;52.240;16.826;2022-07-10T20:44:03;17.50;99.90
38798;SHT11;24546;52.240;16.826;2022-07-10T20:49:07;17.40;99.90
38798;SHT11;24546;52.240;16.826;2022-07-10T20:54:08;17.40;99.90
38798;SHT11;24546;52.240;16.826;2022-07-10T20:59:08;17.40;99.90
38798;SHT11;24546;52.240;16.826;2022-07-10T21:04:09;17.30;99.90
38798;SHT11;24546;52.240;16.826;2022-07-10T21:09:10;17.40;99.90
38798;SHT11;24546;52.240;16.826;2022-07-10T21:14:12;17.20;99.90
38798;SHT11;24546;52.240;16.826;2022-07-10T21:19:13;17.20;99.90
38798;SHT11;24546;52.240;16.826;2022-07-10T21:24:14;17.20;99.90
38798;SHT11;24546;52.240;16.826;2022-07-10T21:29:15;17.10;99.90
38798;SHT11;24546;52.240;16.826;2022-07-10T21:34:16;17.10;99.90
38798;SHT11;24546;52.240;16.826;2022-07-10T21:39:17;17.10;99.90
38798;SHT11;24546;52.240;16.826;2022-07-10T21:44:17;17.10;99.90
38798;SHT11;24546;52.240;16.826;2022-07-10T21:49:18;17.10;99.90
38798;SHT11;24546;52.240;16.826;2022-07-10T21:54:19;17.20;99.90
38798;SHT11;24546;52.240;16.826;2022-07-10T21:59:20;17.10;99.90
38798;SHT11;24546;52.240;16.826;2022-07-10T22:04:21;17.00;99.90
38798;SHT11;24546;52.240;16.826;2022-07-10T22:09:22;16.90;99.90
38798;SHT11;24546;52.240;16.826;2022-07-10T22:14:23;16.90;99.90
38798;SHT11;24546;52.240;16.826;2022-07-10T22:19:24;16.80;99.90
38798;SHT11;24546;52.240;16.826;2022-07-10T22:24:25;16.80;99.90
38798;SHT11;24546;52.240;16.826;2022-07-10T22:29:26;16.80;99.90
38798;SHT11;24546;52.240;16.826;2022-07-10T22:34:27;16.80;99.90
38798;SHT11;24546;52.240;16.826;2022-07-10T22:39:28;16.70;99.90
38798;SHT11;24546;52.240;16.826;2022-07-10T22:44:29;16.50;99.90
38798;SHT11;24546;52.240;16.826;2022-07-10T22:49:30;16.50;99.90
38798;SHT11;24546;52.240;16.826;2022-07-10T22:54:31;16.60;99.90
38798;SHT11;24546;52.240;16.826;2022-07-10T22:59:32;16.30;99.90
38798;SHT11;24546;52.240;16.826;2022-07-10T23:04:32;16.20;99.90
38798;SHT11;24546;52.240;16.826;2022-07-10T23:09:34;16.20;99.90
38798;SHT11;24546;52.240;16.826;2022-07-10T23:14:35;16.10;99.90
38798;SHT11;24546;52.240;16.826;2022-07-10T23:19:36;15.90;99.90
38798;SHT11;24546;52.240;16.826;2022-07-10T23:24:36;15.70;99.90
38798;SHT11;24546;52.240;16.826;2022-07-10T23:29:37;15.60;99.90
38798;SHT11;24546;52.240;16.826;2022-07-10T23:34:38;15.50;99.90
38798;SHT11;24546;52.240;16.826;2022-07-10T23:39:41;15.40;99.90
38798;SHT11;24546;52.240;16.826;2022-07-10T23:44:42;15.30;99.90
38798;SHT11;24546;52.240;16.826;2022-07-10T23:49:43;15.30;99.90
38798;SHT11;24546;52.240;16.826;2022-07-10T23:55:03;15.20;99.90
